Time;durP1;ratioP1;P1;durP2;ratioP2;P2;SDS_P1;SDS_P2;PMS_P1;PMS_P2;Temp;Humidity;BMP_temperature;BMP_pressure;BME280_temperature;BME280_humidity;BME280_pressure;Samples;Min_cycle;Max_cycle;Signal;HPM_P1;HPM_P2
2021/06/08 00:01:56;;;;;;;34.50;31.93;;;;;;;;;;5035893;28;20450;-80
2021/06/08 00:04:23;;;;;;;34.77;32.07;;;;;;;;;;5035487;28;20483;-80
2021/06/08 00:06:51;;;;;;;34.57;31.80;;;;;;;;;;5035784;28;20446;-80
2021/06/08 00:09:18;;;;;;;32.97;30.63;;;;;;;;;;5034204;28;20877;-79
2021/06/08 00:11:45;;;;;;;33.67;31.17;;;;;;;;;;5035680;28;20759;-80
2021/06/08 00:14:13;;;;;;;34.17;31.57;;;;;;;;;;5035720;28;20436;-80
2021/06/08 00:16:40;;;;;;;34.30;31.67;;;;;;;;;;5035351;28;20536;-80
2021/06/08 00:19:07;;;;;;;35.67;33.00;;;;;;;;;;5035675;28;20415;-80
2021/06/08 00:21:34;;;;;;;33.37;30.87;;;;;;;;;;5035516;28;20438;-80
2021/06/08 00:24:01;;;;;;;34.17;31.07;;;;;;;;;;5035331;28;20450;-80
2021/06/08 00:26:28;;;;;;;32.70;29.80;;;;;;;;;;5034131;28;20489;-80
2021/06/08 00:28:55;;;;;;;32.70;30.30;;;;;;;;;;5034353;28;20422;-80
2021/06/08 00:31:23;;;;;;;31.90;29.60;;;;;;;;;;5035086;28;20399;-80
2021/06/08 00:33:51;;;;;;;35.10;32.33;;;;;;;;;;5035268;28;20415;-80
2021/06/08 00:36:18;;;;;;;32.50;30.10;;;;;;;;;;5034855;28;20447;-80
2021/06/08 00:38:44;;;;;;;34.17;31.17;;;;;;;;;;5035224;28;20419;-80
2021/06/08 00:41:12;;;;;;;31.30;29.07;;;;;;;;;;5034675;28;20443;-80
2021/06/08 00:43:39;;;;;;;30.30;28.20;;;;;;;;;;5034925;28;20469;-79
2021/06/08 00:46:06;;;;;;;29.83;27.70;;;;;;;;;;5035447;28;20445;-79
2021/06/08 00:48:34;;;;;;;28.53;26.60;;;;;;;;;;5034265;28;20448;-79
2021/06/08 00:51:01;;;;;;;28.67;26.77;;;;;;;;;;5034596;28;20443;-80
2021/06/08 00:53:28;;;;;;;29.70;27.43;;;;;;;;;;5033616;28;20452;-79
2021/06/08 00:55:55;;;;;;;29.13;27.13;;;;;;;;;;5034605;28;20428;-80
2021/06/08 00:58:22;;;;;;;28.77;26.67;;;;;;;;;;5034534;28;20903;-79
2021/06/08 01:00:48;;;;;;;28.83;26.83;;;;;;;;;;5034770;28;20454;-79
2021/06/08 01:03:15;;;;;;;28.57;26.47;;;;;;;;;;5034342;28;20407;-79
2021/06/08 01:05:43;;;;;;;30.00;27.70;;;;;;;;;;5034681;28;21027;-79
2021/06/08 01:08:10;;;;;;;29.60;27.20;;;;;;;;;;5034725;28;20438;-80
2021/06/08 01:10:37;;;;;;;29.90;27.60;;;;;;;;;;5034079;28;20509;-79
2021/06/08 01:13:04;;;;;;;28.50;26.50;;;;;;;;;;5034379;28;20921;-79
2021/06/08 01:15:31;;;;;;;29.27;27.27;;;;;;;;;;5034764;28;20499;-79
2021/06/08 01:17:59;;;;;;;30.67;28.43;;;;;;;;;;5033206;28;20444;-79
2021/06/08 01:20:26;;;;;;;28.77;26.67;;;;;;;;;;5034296;28;20453;-80
2021/06/08 01:22:55;;;;;;;29.23;27.20;;;;;;;;;;5034437;28;20761;-79
2021/06/08 01:25:22;;;;;;;27.70;25.87;;;;;;;;;;5034046;28;20455;-79
2021/06/08 01:27:49;;;;;;;27.83;26.00;;;;;;;;;;5034099;28;20432;-79
2021/06/08 01:30:16;;;;;;;28.60;26.70;;;;;;;;;;5034404;28;20440;-80
2021/06/08 01:32:44;;;;;;;29.13;26.97;;;;;;;;;;5034221;28;20441;-80
2021/06/08 01:35:12;;;;;;;30.77;28.37;;;;;;;;;;5032950;28;20457;-80
2021/06/08 01:37:39;;;;;;;27.40;25.60;;;;;;;;;;5034256;28;20440;-80
2021/06/08 01:40:10;;;;;;;29.17;27.07;;;;;;;;;;5034175;28;20507;-80
2021/06/08 01:42:37;;;;;;;27.63;25.73;;;;;;;;;;5034352;28;20409;-81
2021/06/08 01:45:05;;;;;;;29.50;27.30;;;;;;;;;;5033594;28;20495;-80
2021/06/08 01:47:32;;;;;;;29.43;27.33;;;;;;;;;;5033723;28;20412;-80
2021/06/08 01:49:59;;;;;;;28.93;26.73;;;;;;;;;;5032812;28;20828;-80
2021/06/08 01:52:32;;;;;;;27.83;25.97;;;;;;;;;;5033831;28;20929;-80
2021/06/08 01:55:02;;;;;;;30.67;28.07;;;;;;;;;;5034105;28;20432;-80
2021/06/08 01:57:34;;;;;;;29.50;27.20;;;;;;;;;;5032773;28;20418;-80
2021/06/08 02:00:03;;;;;;;29.60;27.47;;;;;;;;;;5033900;28;20439;-80
2021/06/08 02:02:33;;;;;;;28.97;26.97;;;;;;;;;;5033395;28;20428;-80
2021/06/08 02:05:04;;;;;;;28.67;26.57;;;;;;;;;;5033953;28;20455;-79
2021/06/08 02:07:41;;;;;;;29.83;27.70;;;;;;;;;;5033512;28;20423;-80
2021/06/08 02:10:15;;;;;;;30.90;28.60;;;;;;;;;;5033932;28;20475;-80
2021/06/08 02:12:49;;;;;;;31.20;28.80;;;;;;;;;;5033717;28;20805;-80
2021/06/08 02:15:17;;;;;;;30.27;28.07;;;;;;;;;;5033793;28;20832;-80
2021/06/08 02:17:45;;;;;;;30.60;28.20;;;;;;;;;;5033118;28;20485;-80
2021/06/08 02:20:14;;;;;;;30.33;28.00;;;;;;;;;;5033470;28;20777;-80
2021/06/08 02:22:45;;;;;;;30.47;28.13;;;;;;;;;;5033338;28;20489;-80
2021/06/08 02:25:13;;;;;;;29.00;26.90;;;;;;;;;;5033636;28;20479;-80
2021/06/08 02:27:40;;;;;;;26.90;24.90;;;;;;;;;;5033714;28;20452;-80
2021/06/08 02:30:10;;;;;;;29.73;27.63;;;;;;;;;;5033649;28;20447;-80
2021/06/08 02:32:37;;;;;;;30.50;28.40;;;;;;;;;;5033456;28;20422;-80
2021/06/08 02:35:05;;;;;;;29.67;27.57;;;;;;;;;;5033300;28;20432;-80
2021/06/08 02:37:33;;;;;;;29.40;27.20;;;;;;;;;;5033255;28;20806;-81
2021/06/08 02:40:00;;;;;;;31.10;28.77;;;;;;;;;;5033436;28;20468;-80
2021/06/08 02:42:27;;;;;;;31.97;29.67;;;;;;;;;;5033445;28;20429;-81
2021/06/08 02:44:55;;;;;;;35.20;32.40;;;;;;;;;;5033101;28;20492;-80
2021/06/08 02:47:23;;;;;;;32.83;30.50;;;;;;;;;;5033496;28;20456;-81
2021/06/08 02:49:50;;;;;;;32.97;30.57;;;;;;;;;;5033569;28;20419;-80
2021/06/08 02:52:19;;;;;;;32.53;29.53;;;;;;;;;;5032389;28;20523;-80
2021/06/08 02:54:47;;;;;;;28.50;26.40;;;;;;;;;;5033407;28;20422;-81
2021/06/08 02:57:14;;;;;;;32.97;30.40;;;;;;;;;;5033369;28;20438;-80
2021/06/08 02:59:43;;;;;;;30.73;28.20;;;;;;;;;;5032103;28;20438;-80
2021/06/08 03:02:12;;;;;;;32.53;30.17;;;;;;;;;;5031967;28;20461;-80
2021/06/08 03:04:44;;;;;;;35.00;32.30;;;;;;;;;;5032858;28;20455;-80
2021/06/08 03:07:11;;;;;;;32.77;30.30;;;;;;;;;;5033322;28;20420;-80
2021/06/08 03:09:39;;;;;;;32.97;30.37;;;;;;;;;;5032793;28;20522;-80
2021/06/08 03:12:08;;;;;;;32.80;30.40;;;;;;;;;;5034409;28;20410;-81
2021/06/08 03:14:35;;;;;;;32.77;30.17;;;;;;;;;;5036599;28;20423;-81
2021/06/08 03:17:03;;;;;;;31.67;29.30;;;;;;;;;;5036625;28;20392;-80
2021/06/08 03:19:32;;;;;;;31.27;28.97;;;;;;;;;;5036581;28;20443;-81
2021/06/08 03:22:02;;;;;;;32.00;29.70;;;;;;;;;;5036613;28;20826;-81
2021/06/08 03:24:31;;;;;;;32.33;29.70;;;;;;;;;;5036577;28;20571;-80
2021/06/08 03:26:59;;;;;;;31.33;28.80;;;;;;;;;;5036513;28;20417;-79
2021/06/08 03:29:26;;;;;;;32.37;29.87;;;;;;;;;;5036548;28;20412;-80
2021/06/08 03:31:53;;;;;;;30.13;27.77;;;;;;;;;;5036396;28;20447;-80
2021/06/08 03:34:21;;;;;;;30.07;27.87;;;;;;;;;;5036120;28;20510;-80
2021/06/08 03:36:49;;;;;;;30.63;28.10;;;;;;;;;;5035018;28;20441;-80
2021/06/08 03:39:19;;;;;;;30.10;27.80;;;;;;;;;;5036739;28;20447;-80
2021/06/08 03:41:47;;;;;;;30.57;28.43;;;;;;;;;;5036223;28;20406;-80
2021/06/08 03:44:14;;;;;;;31.03;28.57;;;;;;;;;;5036088;28;20789;-80
2021/06/08 03:46:41;;;;;;;33.77;31.27;;;;;;;;;;5036387;28;20458;-80
2021/06/08 03:49:08;;;;;;;31.30;28.70;;;;;;;;;;5035018;28;20425;-80
2021/06/08 03:51:36;;;;;;;29.87;27.77;;;;;;;;;;5034828;28;20454;-80
2021/06/08 03:54:04;;;;;;;30.60;28.27;;;;;;;;;;5035858;28;20412;-80
2021/06/08 03:56:32;;;;;;;30.60;28.27;;;;;;;;;;5035974;28;20512;-80
2021/06/08 03:59:00;;;;;;;30.23;27.93;;;;;;;;;;5036398;28;20421;-80
2021/06/08 04:01:28;;;;;;;29.73;27.57;;;;;;;;;;5036287;28;20440;-81
2021/06/08 04:03:55;;;;;;;32.60;30.00;;;;;;;;;;5035760;28;20434;-80
2021/06/08 04:06:22;;;;;;;29.47;27.47;;;;;;;;;;5035785;28;20520;-80
2021/06/08 04:08:49;;;;;;;29.63;27.43;;;;;;;;;;5035853;28;20411;-80
2021/06/08 04:11:18;;;;;;;29.67;27.47;;;;;;;;;;5035463;28;20495;-81
2021/06/08 04:13:47;;;;;;;29.67;27.37;;;;;;;;;;5035744;28;20410;-81
2021/06/08 04:16:14;;;;;;;30.83;28.47;;;;;;;;;;5035746;28;20444;-80
2021/06/08 04:18:42;;;;;;;29.53;27.33;;;;;;;;;;5035616;28;20451;-80
2021/06/08 04:21:08;;;;;;;31.60;28.90;;;;;;;;;;5035494;28;20461;-80
2021/06/08 04:23:35;;;;;;;30.97;28.67;;;;;;;;;;5034614;28;20414;-80
2021/06/08 04:26:03;;;;;;;30.57;28.27;;;;;;;;;;5035179;28;20484;-80
2021/06/08 04:28:30;;;;;;;31.10;28.90;;;;;;;;;;5035509;28;20448;-81
2021/06/08 04:30:59;;;;;;;30.97;28.73;;;;;;;;;;5035162;28;20502;-81
2021/06/08 04:33:27;;;;;;;29.40;27.30;;;;;;;;;;5035329;28;20915;-81
2021/06/08 04:35:54;;;;;;;29.13;26.97;;;;;;;;;;5033914;28;20436;-81
2021/06/08 04:38:21;;;;;;;29.70;27.50;;;;;;;;;;5034758;28;20451;-79
2021/06/08 04:40:49;;;;;;;29.43;27.50;;;;;;;;;;5035036;28;20477;-79
2021/06/08 04:43:20;;;;;;;29.13;26.83;;;;;;;;;;5035054;28;20894;-79
2021/06/08 04:45:47;;;;;;;29.63;27.63;;;;;;;;;;5034981;28;20513;-79
2021/06/08 04:48:16;;;;;;;28.13;26.17;;;;;;;;;;5034947;28;20443;-79
2021/06/08 04:50:43;;;;;;;29.73;27.43;;;;;;;;;;5034879;28;20417;-80
2021/06/08 04:53:09;;;;;;;28.63;26.53;;;;;;;;;;5034891;28;20456;-79
2021/06/08 04:55:36;;;;;;;29.77;27.63;;;;;;;;;;5033527;28;20764;-79
2021/06/08 04:58:03;;;;;;;30.53;28.30;;;;;;;;;;5034807;28;20415;-79
2021/06/08 05:00:34;;;;;;;30.50;28.37;;;;;;;;;;5034356;28;20437;-79
2021/06/08 05:03:05;;;;;;;31.20;28.70;;;;;;;;;;5034611;28;20412;-79
2021/06/08 05:05:34;;;;;;;31.10;28.63;;;;;;;;;;5034570;28;20488;-79
2021/06/08 05:08:04;;;;;;;30.40;28.20;;;;;;;;;;5034706;28;20445;-78
2021/06/08 05:10:32;;;;;;;32.80;30.23;;;;;;;;;;5032881;28;20458;-79
2021/06/08 05:13:00;;;;;;;32.43;29.80;;;;;;;;;;5034201;28;20424;-78
2021/06/08 05:15:29;;;;;;;32.03;29.73;;;;;;;;;;5034348;28;20834;-78
2021/06/08 05:17:55;;;;;;;32.37;29.77;;;;;;;;;;5034132;28;20448;-79
2021/06/08 05:20:23;;;;;;;32.00;29.60;;;;;;;;;;5034441;28;20452;-79
2021/06/08 05:22:55;;;;;;;31.13;28.83;;;;;;;;;;5034350;28;20484;-78
2021/06/08 05:25:22;;;;;;;33.23;30.73;;;;;;;;;;5034195;28;20490;-79
2021/06/08 05:27:50;;;;;;;31.27;29.03;;;;;;;;;;5034247;28;20423;-79
2021/06/08 05:30:17;;;;;;;31.97;29.40;;;;;;;;;;5034224;28;20444;-78
2021/06/08 05:32:45;;;;;;;32.70;30.23;;;;;;;;;;5033803;28;20420;-78
2021/06/08 05:35:12;;;;;;;31.23;28.97;;;;;;;;;;5033850;28;20474;-78
2021/06/08 05:37:42;;;;;;;32.40;29.40;;;;;;;;;;5033860;28;20466;-79
2021/06/08 05:40:11;;;;;;;31.10;28.90;;;;;;;;;;5033628;28;21037;-79
2021/06/08 05:42:38;;;;;;;31.77;29.47;;;;;;;;;;5034101;28;20442;-79
2021/06/08 05:45:06;;;;;;;32.93;30.27;;;;;;;;;;5033609;28;20524;-79
2021/06/08 05:47:32;;;;;;;32.77;30.13;;;;;;;;;;5034166;28;20445;-76
2021/06/08 05:49:59;;;;;;;33.07;30.57;;;;;;;;;;5033914;28;20805;-79
2021/06/08 05:52:27;;;;;;;33.30;31.00;;;;;;;;;;5033905;28;20444;-80
2021/06/08 05:54:55;;;;;;;33.10;30.70;;;;;;;;;;5033986;28;20447;-79
2021/06/08 05:57:23;;;;;;;35.10;32.17;;;;;;;;;;5033508;28;20445;-79
2021/06/08 05:59:50;;;;;;;33.97;31.03;;;;;;;;;;5033378;28;20448;-79
2021/06/08 06:02:18;;;;;;;34.40;31.90;;;;;;;;;;5033727;28;20427;-78
2021/06/08 06:04:45;;;;;;;34.80;32.30;;;;;;;;;;5033451;28;20481;-79
2021/06/08 06:07:12;;;;;;;35.60;32.87;;;;;;;;;;5033669;28;20781;-78
2021/06/08 06:09:39;;;;;;;33.93;31.30;;;;;;;;;;5033547;28;20483;-78
2021/06/08 06:12:07;;;;;;;33.77;31.27;;;;;;;;;;5033367;28;20780;-78
2021/06/08 06:14:37;;;;;;;34.27;31.67;;;;;;;;;;5032516;28;20447;-78
2021/06/08 06:17:04;;;;;;;34.93;32.13;;;;;;;;;;5033678;28;20451;-81
2021/06/08 06:19:31;;;;;;;35.53;32.67;;;;;;;;;;5033392;28;20451;-79
2021/06/08 06:21:59;;;;;;;34.50;31.90;;;;;;;;;;5033607;28;20404;-79
2021/06/08 06:24:27;;;;;;;36.07;33.37;;;;;;;;;;5033227;28;20984;-79
2021/06/08 06:26:54;;;;;;;36.17;32.77;;;;;;;;;;5033563;28;20448;-79
2021/06/08 06:29:21;;;;;;;35.97;33.40;;;;;;;;;;5033251;28;20949;-78
2021/06/08 06:31:50;;;;;;;35.20;32.53;;;;;;;;;;5033737;28;20414;-78
2021/06/08 06:34:18;;;;;;;36.13;33.20;;;;;;;;;;5033181;28;20471;-80
2021/06/08 06:36:47;;;;;;;36.60;33.80;;;;;;;;;;5033308;28;20448;-79
2021/06/08 06:39:16;;;;;;;36.67;33.87;;;;;;;;;;5033403;28;20517;-79
2021/06/08 06:41:44;;;;;;;35.77;32.90;;;;;;;;;;5033416;28;20423;-79
2021/06/08 06:44:13;;;;;;;34.93;32.43;;;;;;;;;;5033393;28;20407;-79
2021/06/08 06:46:39;;;;;;;34.93;32.33;;;;;;;;;;5033705;28;20959;-81
2021/06/08 06:49:09;;;;;;;36.57;33.87;;;;;;;;;;5037281;28;20522;-79
2021/06/08 06:51:36;;;;;;;34.57;32.07;;;;;;;;;;5036971;28;20990;-79
2021/06/08 06:54:04;;;;;;;35.63;32.93;;;;;;;;;;5037209;28;20411;-79
2021/06/08 06:56:31;;;;;;;35.53;32.73;;;;;;;;;;5037112;28;20441;-79
2021/06/08 06:58:58;;;;;;;36.67;33.67;;;;;;;;;;5037132;28;20943;-79
2021/06/08 07:01:26;;;;;;;35.83;33.10;;;;;;;;;;5036908;28;20451;-79
2021/06/08 07:03:54;;;;;;;35.07;32.20;;;;;;;;;;5036882;28;20490;-79
2021/06/08 07:06:22;;;;;;;34.87;32.00;;;;;;;;;;5036959;28;20458;-79
2021/06/08 07:08:50;;;;;;;35.80;32.90;;;;;;;;;;5036875;28;20422;-79
2021/06/08 07:11:18;;;;;;;35.10;32.40;;;;;;;;;;5036356;28;20479;-77
2021/06/08 07:13:45;;;;;;;33.30;31.00;;;;;;;;;;5035672;28;20472;-78
2021/06/08 07:16:14;;;;;;;35.03;32.30;;;;;;;;;;5036594;28;20429;-81
2021/06/08 07:18:41;;;;;;;35.63;32.63;;;;;;;;;;5035277;28;20463;-79
2021/06/08 07:21:09;;;;;;;33.40;30.80;;;;;;;;;;5036678;28;20501;-81
2021/06/08 07:23:38;;;;;;;35.20;32.60;;;;;;;;;;5035599;28;20447;-79
2021/06/08 07:26:05;;;;;;;35.60;32.67;;;;;;;;;;5036478;28;20458;-80
2021/06/08 07:28:32;;;;;;;36.43;33.47;;;;;;;;;;5036602;28;20467;-78
2021/06/08 07:31:00;;;;;;;35.43;32.27;;;;;;;;;;5036617;28;20465;-85
2021/06/08 07:33:29;;;;;;;35.77;32.90;;;;;;;;;;5036884;28;20948;-84
2021/06/08 07:35:58;;;;;;;36.20;33.40;;;;;;;;;;5036845;28;20423;-85
2021/06/08 07:38:32;;;;;;;34.43;31.83;;;;;;;;;;5036669;28;20912;-83
2021/06/08 07:41:02;;;;;;;34.93;32.33;;;;;;;;;;5036644;28;20455;-86
2021/06/08 07:43:30;;;;;;;35.10;32.40;;;;;;;;;;5036728;28;20800;-86
2021/06/08 07:46:01;;;;;;;34.67;31.97;;;;;;;;;;5036139;28;20516;-81
2021/06/08 07:48:30;;;;;;;37.30;34.10;;;;;;;;;;5034832;28;20444;-82
2021/06/08 07:50:57;;;;;;;36.23;33.23;;;;;;;;;;5035781;28;20449;-78
2021/06/08 07:53:28;;;;;;;34.83;32.43;;;;;;;;;;5034725;28;20452;-78
2021/06/08 07:55:55;;;;;;;37.20;34.40;;;;;;;;;;5035946;28;20454;-78
2021/06/08 07:58:25;;;;;;;37.07;34.10;;;;;;;;;;5035740;28;20426;-79
2021/06/08 08:00:52;;;;;;;35.37;32.53;;;;;;;;;;5035601;28;21000;-79
2021/06/08 08:03:26;;;;;;;35.97;33.20;;;;;;;;;;5035574;28;21004;-79
2021/06/08 08:05:54;;;;;;;36.90;34.30;;;;;;;;;;5035504;28;20492;-80
2021/06/08 08:08:21;;;;;;;37.30;34.40;;;;;;;;;;5034948;28;20443;-84
2021/06/08 08:10:48;;;;;;;36.17;33.10;;;;;;;;;;5035318;28;20492;-84
2021/06/08 08:13:16;;;;;;;35.77;33.00;;;;;;;;;;5034412;28;20450;-84
2021/06/08 08:15:46;;;;;;;36.73;33.83;;;;;;;;;;5035828;28;20443;-83
2021/06/08 08:18:13;;;;;;;35.03;32.43;;;;;;;;;;5035762;28;20443;-85
2021/06/08 08:20:45;;;;;;;38.23;35.07;;;;;;;;;;5034481;28;20424;-83
2021/06/08 08:23:12;;;;;;;36.07;33.17;;;;;;;;;;5034746;28;20426;-84
2021/06/08 08:25:39;;;;;;;37.13;34.20;;;;;;;;;;5034812;28;20970;-83
2021/06/08 08:28:07;;;;;;;36.60;33.83;;;;;;;;;;5035519;28;20435;-84
2021/06/08 08:30:34;;;;;;;36.77;34.07;;;;;;;;;;5034850;28;20442;-83
2021/06/08 08:33:03;;;;;;;38.07;34.70;;;;;;;;;;5034862;28;20419;-78
2021/06/08 08:35:30;;;;;;;36.53;33.63;;;;;;;;;;5035603;28;20445;-82
2021/06/08 08:37:57;;;;;;;37.73;34.77;;;;;;;;;;5035074;28;20499;-81
2021/06/08 08:40:24;;;;;;;37.00;34.17;;;;;;;;;;5035353;28;20811;-81
2021/06/08 08:42:51;;;;;;;36.60;33.70;;;;;;;;;;5035104;28;20437;-82
2021/06/08 08:45:18;;;;;;;38.20;34.80;;;;;;;;;;5035252;28;20467;-80
2021/06/08 08:47:45;;;;;;;38.60;35.30;;;;;;;;;;5033901;28;20454;-83
2021/06/08 08:50:15;;;;;;;36.37;33.67;;;;;;;;;;5035220;28;20473;-80
2021/06/08 08:52:44;;;;;;;37.87;34.73;;;;;;;;;;5035028;28;20424;-82
2021/06/08 08:55:11;;;;;;;36.57;33.77;;;;;;;;;;5035378;28;20496;-81
2021/06/08 08:57:38;;;;;;;37.33;34.43;;;;;;;;;;5034740;28;20910;-82
2021/06/08 09:00:07;;;;;;;39.80;36.37;;;;;;;;;;5034843;28;20440;-82
2021/06/08 09:02:34;;;;;;;39.27;36.17;;;;;;;;;;5035044;28;20515;-82
2021/06/08 09:05:01;;;;;;;37.33;34.37;;;;;;;;;;5034568;28;20575;-83
2021/06/08 09:07:30;;;;;;;39.37;36.07;;;;;;;;;;5035072;28;20438;-82
2021/06/08 09:09:56;;;;;;;41.10;37.97;;;;;;;;;;5014278;28;20481;-82
2021/06/08 09:12:23;;;;;;;38.80;35.60;;;;;;;;;;5015115;28;20440;-82
2021/06/08 09:14:50;;;;;;;40.73;37.43;;;;;;;;;;5013933;28;20454;-78
2021/06/08 09:17:18;;;;;;;38.63;35.33;;;;;;;;;;5014663;28;20452;-78
2021/06/08 09:19:45;;;;;;;40.13;37.07;;;;;;;;;;5014605;28;20891;-78
2021/06/08 09:22:13;;;;;;;40.50;37.27;;;;;;;;;;5014166;28;20430;-78
2021/06/08 09:24:45;;;;;;;39.63;36.07;;;;;;;;;;5014539;28;20486;-79
2021/06/08 09:27:13;;;;;;;41.30;38.00;;;;;;;;;;5014696;28;20425;-78
2021/06/08 09:29:40;;;;;;;42.53;39.00;;;;;;;;;;5014250;28;20489;-77
2021/06/08 09:32:14;;;;;;;42.03;38.43;;;;;;;;;;5014298;28;20438;-78
2021/06/08 09:34:44;;;;;;;41.77;38.37;;;;;;;;;;5014127;28;20409;-78
2021/06/08 09:37:11;;;;;;;40.40;36.60;;;;;;;;;;5014376;28;20443;-79
2021/06/08 09:39:45;;;;;;;42.47;39.17;;;;;;;;;;5031480;28;20974;-78
2021/06/08 09:42:23;;;;;;;43.27;39.63;;;;;;;;;;5032784;28;20928;-78
2021/06/08 09:44:51;;;;;;;40.80;37.43;;;;;;;;;;5032667;28;20477;-78
2021/06/08 09:47:31;;;;;;;41.77;38.47;;;;;;;;;;5033639;28;20898;-80
2021/06/08 09:49:58;;;;;;;42.90;39.20;;;;;;;;;;5033869;28;20912;-81
2021/06/08 09:52:25;;;;;;;41.33;38.20;;;;;;;;;;5034646;28;20415;-81
2021/06/08 09:54:57;;;;;;;43.27;39.27;;;;;;;;;;5033753;28;20446;-81
2021/06/08 09:57:26;;;;;;;45.67;41.77;;;;;;;;;;5033998;28;20422;-83
2021/06/08 09:59:56;;;;;;;46.00;42.10;;;;;;;;;;5034213;28;20909;-79
2021/06/08 10:02:27;;;;;;;42.73;39.00;;;;;;;;;;5033551;28;20469;-80
2021/06/08 10:04:55;;;;;;;44.60;40.60;;;;;;;;;;5016570;28;20995;-82
2021/06/08 10:07:29;;;;;;;42.90;39.40;;;;;;;;;;5034817;28;20418;-83
2021/06/08 10:10:05;;;;;;;45.73;41.70;;;;;;;;;;5013706;28;20487;-83
2021/06/08 10:12:32;;;;;;;46.17;42.30;;;;;;;;;;5014171;28;20414;-82
2021/06/08 10:15:06;;;;;;;46.37;42.30;;;;;;;;;;5014454;28;20443;-84
2021/06/08 10:17:33;;;;;;;45.03;41.10;;;;;;;;;;5014237;28;20493;-83
2021/06/08 10:20:17;;;;;;;46.30;42.10;;;;;;;;;;5014620;28;20421;-84
2021/06/08 10:22:44;;;;;;;46.00;42.13;;;;;;;;;;5016884;28;20418;-84
2021/06/08 10:25:12;;;;;;;46.07;41.93;;;;;;;;;;5018323;28;20460;-84
2021/06/08 10:27:40;;;;;;;46.87;42.57;;;;;;;;;;5018387;28;20426;-85
2021/06/08 10:30:08;;;;;;;49.13;44.93;;;;;;;;;;5018249;28;20406;-84
2021/06/08 10:32:35;;;;;;;46.70;42.67;;;;;;;;;;5018203;28;20435;-85
2021/06/08 10:35:02;;;;;;;45.53;41.60;;;;;;;;;;5018111;28;20445;-79
2021/06/08 10:37:29;;;;;;;47.67;43.30;;;;;;;;;;5018297;28;20465;-82
2021/06/08 10:39:58;;;;;;;44.00;40.27;;;;;;;;;;5037984;28;20535;-86
2021/06/08 10:42:27;;;;;;;46.30;42.50;;;;;;;;;;5038113;28;20912;-86
2021/06/08 10:45:01;;;;;;;48.87;44.80;;;;;;;;;;5038177;28;20565;-86
2021/06/08 10:47:34;;;;;;;45.30;41.23;;;;;;;;;;5037873;28;20439;-85
2021/06/08 10:50:02;;;;;;;45.90;42.13;;;;;;;;;;5037864;28;20440;-87
2021/06/08 10:52:29;;;;;;;46.90;42.80;;;;;;;;;;5037907;28;20465;-86
2021/06/08 10:54:56;;;;;;;46.63;42.50;;;;;;;;;;5037750;28;20467;-86
2021/06/08 10:57:23;;;;;;;45.27;41.50;;;;;;;;;;5037808;28;20412;-87
2021/06/08 10:59:52;;;;;;;45.80;41.93;;;;;;;;;;5037108;28;20416;-83
2021/06/08 11:02:34;;;;;;;45.70;41.87;;;;;;;;;;5036745;28;20450;-85
2021/06/08 11:05:01;;;;;;;48.20;43.33;;;;;;;;;;5036984;28;20467;-82
2021/06/08 11:07:47;;;;;;;46.50;42.60;;;;;;;;;;5037416;28;20427;-82
2021/06/08 11:10:42;;;;;;;45.97;42.10;;;;;;;;;;5037282;28;20494;-85
2021/06/08 11:13:30;;;;;;;45.73;41.80;;;;;;;;;;4995964;28;20464;-83
2021/06/08 11:16:19;;;;;;;48.03;44.00;;;;;;;;;;4995476;28;20431;-83
2021/06/08 11:18:46;;;;;;;47.13;42.97;;;;;;;;;;4995963;28;20543;-84
2021/06/08 11:21:26;;;;;;;47.70;43.60;;;;;;;;;;4995642;28;20448;-83
2021/06/08 11:23:55;;;;;;;49.27;45.27;;;;;;;;;;4995732;28;20504;-84
2021/06/08 11:26:37;;;;;;;46.60;42.47;;;;;;;;;;4995382;28;20550;-83
2021/06/08 11:29:04;;;;;;;47.87;43.57;;;;;;;;;;4987789;28;20463;-84
2021/06/08 11:31:49;;;;;;;45.10;41.40;;;;;;;;;;4995443;28;20456;-84
2021/06/08 11:34:16;;;;;;;48.23;44.13;;;;;;;;;;4978613;28;20522;-85
2021/06/08 11:36:43;;;;;;;47.20;43.30;;;;;;;;;;4995501;28;20452;-84
2021/06/08 11:39:26;;;;;;;47.23;43.30;;;;;;;;;;4995340;28;20480;-83
2021/06/08 11:41:56;;;;;;;46.93;43.00;;;;;;;;;;4995371;28;20420;-83
2021/06/08 11:44:23;;;;;;;46.87;42.90;;;;;;;;;;4994754;28;20471;-82
2021/06/08 11:46:55;;;;;;;47.37;43.57;;;;;;;;;;4994628;28;20848;-82
2021/06/08 11:49:23;;;;;;;48.47;44.30;;;;;;;;;;5025812;28;20466;-82
2021/06/08 11:52:09;;;;;;;47.30;43.27;;;;;;;;;;5036105;28;20440;-82
2021/06/08 11:54:48;;;;;;;47.20;43.30;;;;;;;;;;5035143;28;20455;-82
2021/06/08 11:57:16;;;;;;;47.27;43.50;;;;;;;;;;5036236;28;20810;-81
2021/06/08 11:59:58;;;;;;;47.80;43.70;;;;;;;;;;5036044;28;20424;-84
2021/06/08 12:02:31;;;;;;;48.00;43.70;;;;;;;;;;5035850;28;20432;-82
2021/06/08 12:05:08;;;;;;;46.40;42.60;;;;;;;;;;5035897;28;20493;-82
2021/06/08 12:07:41;;;;;;;46.83;42.93;;;;;;;;;;5035802;28;20432;-82
2021/06/08 12:10:08;;;;;;;46.77;43.07;;;;;;;;;;5035826;28;21035;-83
2021/06/08 12:12:43;;;;;;;45.97;41.97;;;;;;;;;;5035555;28;20418;-83
2021/06/08 12:15:10;;;;;;;46.93;42.93;;;;;;;;;;5036805;28;20489;-83
2021/06/08 12:17:39;;;;;;;46.10;42.40;;;;;;;;;;5035410;28;20958;-83
2021/06/08 12:20:06;;;;;;;47.37;43.23;;;;;;;;;;5035652;28;20917;-82
2021/06/08 12:22:33;;;;;;;46.87;43.23;;;;;;;;;;5035649;28;20451;-81
2021/06/08 12:25:01;;;;;;;44.43;40.83;;;;;;;;;;5035375;28;20502;-81
2021/06/08 12:27:38;;;;;;;47.43;43.40;;;;;;;;;;5034606;28;20426;-84
2021/06/08 12:30:07;;;;;;;45.17;41.37;;;;;;;;;;5035036;28;20417;-80
2021/06/08 12:32:34;;;;;;;44.57;41.07;;;;;;;;;;5033850;28;20424;-81
2021/06/08 12:35:02;;;;;;;46.43;42.67;;;;;;;;;;5035353;28;20438;-81
2021/06/08 12:37:29;;;;;;;48.00;44.00;;;;;;;;;;5035019;28;20442;-81
2021/06/08 12:39:56;;;;;;;49.57;45.00;;;;;;;;;;5035034;28;20474;-81
2021/06/08 12:42:24;;;;;;;49.20;44.87;;;;;;;;;;5035291;28;20477;-81
2021/06/08 12:44:51;;;;;;;47.13;43.07;;;;;;;;;;5034195;28;20417;-81
2021/06/08 12:47:18;;;;;;;49.17;44.93;;;;;;;;;;5034095;28;20447;-81
2021/06/08 12:49:45;;;;;;;46.60;42.80;;;;;;;;;;5035079;28;20421;-81
2021/06/08 12:52:17;;;;;;;48.20;44.00;;;;;;;;;;5035526;28;20414;-81
2021/06/08 12:54:44;;;;;;;49.87;45.67;;;;;;;;;;5034629;28;20902;-81
2021/06/08 12:57:12;;;;;;;49.30;44.80;;;;;;;;;;5034691;28;20420;-80
2021/06/08 12:59:39;;;;;;;49.33;45.07;;;;;;;;;;5034927;28;20474;-81
2021/06/08 13:02:08;;;;;;;49.43;44.90;;;;;;;;;;5034463;28;20980;-81
2021/06/08 13:04:38;;;;;;;46.80;43.00;;;;;;;;;;5034757;28;20819;-80
2021/06/08 13:07:05;;;;;;;48.43;44.27;;;;;;;;;;5034599;28;20468;-81
2021/06/08 13:09:34;;;;;;;49.83;45.67;;;;;;;;;;5034413;28;20447;-79
2021/06/08 13:12:05;;;;;;;47.13;42.80;;;;;;;;;;5034734;28;20965;-81
2021/06/08 13:14:32;;;;;;;50.93;46.50;;;;;;;;;;5034060;28;20430;-79
2021/06/08 13:16:59;;;;;;;46.97;43.13;;;;;;;;;;5034536;28;20439;-79
2021/06/08 13:19:27;;;;;;;50.17;45.97;;;;;;;;;;5034484;28;20439;-82
2021/06/08 13:21:55;;;;;;;51.47;46.97;;;;;;;;;;5034505;28;20439;-80
2021/06/08 13:24:23;;;;;;;49.43;45.30;;;;;;;;;;5034426;28;20416;-80
2021/06/08 13:26:52;;;;;;;51.57;46.80;;;;;;;;;;5034350;28;20493;-79
2021/06/08 13:29:21;;;;;;;49.17;44.77;;;;;;;;;;5034348;28;20843;-80
2021/06/08 13:31:48;;;;;;;51.63;47.00;;;;;;;;;;5033979;28;20454;-79
2021/06/08 13:34:23;;;;;;;52.20;47.67;;;;;;;;;;5034161;28;20461;-79
2021/06/08 13:36:51;;;;;;;53.40;48.60;;;;;;;;;;5034221;28;20426;-80
2021/06/08 13:39:21;;;;;;;52.77;48.07;;;;;;;;;;5033956;28;20823;-79
2021/06/08 13:41:48;;;;;;;50.83;46.43;;;;;;;;;;5034151;28;20468;-81
2021/06/08 13:44:17;;;;;;;51.50;46.50;;;;;;;;;;5034082;28;20410;-79
2021/06/08 13:46:54;;;;;;;51.77;47.30;;;;;;;;;;5033915;28;20461;-79
2021/06/08 13:49:21;;;;;;;49.63;45.33;;;;;;;;;;5032839;28;20421;-80
2021/06/08 13:51:52;;;;;;;52.80;48.13;;;;;;;;;;5034019;28;20920;-81
2021/06/08 13:54:20;;;;;;;50.27;46.07;;;;;;;;;;5033995;28;20526;-81
2021/06/08 13:56:49;;;;;;;49.73;45.60;;;;;;;;;;5033428;28;20935;-80
2021/06/08 14:02:05;;;;;;;48.90;44.60;;;;;;;;;;5033985;28;20422;-81
2021/06/08 14:04:41;;;;;;;48.57;44.40;;;;;;;;;;5033651;28;20422;-80
2021/06/08 14:07:07;;;;;;;50.40;46.17;;;;;;;;;;5033479;28;20888;-80
2021/06/08 14:09:39;;;;;;;48.97;44.77;;;;;;;;;;5032454;28;20425;-81
2021/06/08 14:12:07;;;;;;;50.97;46.43;;;;;;;;;;5033492;28;20418;-82
2021/06/08 14:14:36;;;;;;;47.77;43.63;;;;;;;;;;5033804;28;20413;-81
2021/06/08 14:17:10;;;;;;;50.33;45.93;;;;;;;;;;5033696;28;20425;-82
2021/06/08 14:19:37;;;;;;;51.10;46.50;;;;;;;;;;5033882;28;20417;-82
2021/06/08 14:22:04;;;;;;;50.03;45.50;;;;;;;;;;5033570;28;20417;-82
2021/06/08 14:24:35;;;;;;;49.13;44.60;;;;;;;;;;5033849;28;20413;-83
2021/06/08 14:27:02;;;;;;;50.43;45.63;;;;;;;;;;5033872;28;20453;-82
2021/06/08 14:29:29;;;;;;;52.73;48.00;;;;;;;;;;5034632;28;20451;-82